createdAt,value
2023-03-18T00:00:30.142Z,13.09
2023-03-18T00:03:32.794Z,12.96
2023-03-18T00:06:38.168Z,12.80
2023-03-18T00:09:40.702Z,12.64
2023-03-18T00:12:45.154Z,12.53
2023-03-18T00:15:47.832Z,12.43
2023-03-18T00:18:50.685Z,12.27
2023-03-18T00:21:53.191Z,12.08
2023-03-18T00:24:55.763Z,11.93
2023-03-18T00:27:59.809Z,11.92
2023-03-18T00:31:08.606Z,11.98
2023-03-18T00:34:12.519Z,11.98
2023-03-18T00:37:18.914Z,12.10
2023-03-18T00:40:27.473Z,12.16
2023-03-18T00:43:35.805Z,12.19
2023-03-18T00:46:38.837Z,12.15
2023-03-18T00:49:41.733Z,12.19
2023-03-18T00:52:45.137Z,12.32
2023-03-18T00:55:47.864Z,12.46
2023-03-18T00:58:53.772Z,12.48
2023-03-18T01:01:56.292Z,12.57
2023-03-18T01:04:58.907Z,12.50
2023-03-18T01:08:01.774Z,12.34
2023-03-18T01:11:04.850Z,12.22
2023-03-18T01:14:08.760Z,12.05
2023-03-18T01:17:11.757Z,11.91
2023-03-18T01:20:17.052Z,11.93
2023-03-18T01:23:20.798Z,12.01
2023-03-18T01:26:23.651Z,12.05
2023-03-18T01:29:27.524Z,12.00
2023-03-18T01:32:30.155Z,11.92
2023-03-18T01:35:33.162Z,12.20
2023-03-18T01:38:35.816Z,12.22
2023-03-18T01:41:38.439Z,12.08
2023-03-18T01:44:42.571Z,12.08
2023-03-18T01:47:46.465Z,12.10
2023-03-18T01:50:53.019Z,12.14
2023-03-18T01:53:57.561Z,12.04
2023-03-18T01:57:00.520Z,11.91
2023-03-18T02:00:06.180Z,11.84
2023-03-18T02:03:09.036Z,11.71
2023-03-18T02:06:12.314Z,11.68
2023-03-18T02:09:14.898Z,11.75
2023-03-18T02:12:22.989Z,11.66
2023-03-18T02:15:28.317Z,11.60
2023-03-18T02:18:35.216Z,11.53
2023-03-18T02:21:43.230Z,11.37
2023-03-18T02:24:51.534Z,11.17
2023-03-18T02:27:57.149Z,11.00
2023-03-18T02:31:02.363Z,10.84
2023-03-18T02:34:07.128Z,10.79
2023-03-18T02:37:09.597Z,10.92
2023-03-18T02:40:17.588Z,10.95
2023-03-18T02:43:24.459Z,10.98
2023-03-18T02:46:31.182Z,11.12
2023-03-18T02:49:33.723Z,11.22
2023-03-18T02:52:36.453Z,11.31
2023-03-18T02:55:38.982Z,11.27
2023-03-18T02:58:43.022Z,11.10
2023-03-18T03:01:48.090Z,11.02
2023-03-18T03:04:51.737Z,10.92
2023-03-18T03:07:54.247Z,11.02
2023-03-18T03:10:57.450Z,11.03
2023-03-18T03:14:01.380Z,10.96
2023-03-18T03:17:04.152Z,10.94
2023-03-18T03:20:08.688Z,10.93
2023-03-18T03:23:13.420Z,10.89
2023-03-18T03:26:16.117Z,10.87
2023-03-18T03:29:20.260Z,10.75
2023-03-18T03:32:23.202Z,10.66
2023-03-18T03:35:25.898Z,10.65
2023-03-18T03:38:28.446Z,10.71
2023-03-18T03:41:30.903Z,10.71
2023-03-18T03:44:35.138Z,10.54
2023-03-18T03:47:37.791Z,10.48
2023-03-18T03:50:40.590Z,10.40
2023-03-18T03:53:43.763Z,10.32
2023-03-18T03:56:46.471Z,10.29
2023-03-18T03:59:50.495Z,10.27
2023-03-18T04:02:54.137Z,10.24
2023-03-18T04:05:56.487Z,10.25
2023-03-18T04:08:59.356Z,10.28
2023-03-18T04:12:02.125Z,10.19
2023-03-18T04:15:07.061Z,10.17
2023-03-18T04:18:09.946Z,10.17
2023-03-18T04:21:12.569Z,10.23
2023-03-18T04:24:15.113Z,10.17
2023-03-18T04:27:18.414Z,9.99
2023-03-18T04:30:23.378Z,9.85
2023-03-18T04:33:26.237Z,9.83
2023-03-18T04:36:29.180Z,9.78
2023-03-18T04:39:31.643Z,9.80
2023-03-18T04:42:34.391Z,9.96
2023-03-18T04:45:38.294Z,10.07
2023-03-18T04:48:40.932Z,10.08
2023-03-18T04:51:43.587Z,9.83
2023-03-18T04:54:46.067Z,9.50
2023-03-18T04:57:50.495Z,9.31
2023-03-18T05:00:54.710Z,9.09
2023-03-18T05:03:57.303Z,8.94
2023-03-18T05:06:59.901Z,8.92
2023-03-18T05:10:02.419Z,8.79
2023-03-18T05:13:05.203Z,8.65
2023-03-18T05:16:09.897Z,8.55
2023-03-18T05:19:12.702Z,8.47
2023-03-18T05:22:16.372Z,8.50
2023-03-18T05:25:19.102Z,8.43
2023-03-18T05:28:22.359Z,8.48
2023-03-18T05:31:26.366Z,8.58
2023-03-18T05:34:28.855Z,8.56
2023-03-18T05:37:31.479Z,8.43
2023-03-18T05:40:34.626Z,8.35
2023-03-18T05:43:37.737Z,8.23
2023-03-18T05:46:41.908Z,8.20
2023-03-18T05:49:44.455Z,8.16
2023-03-18T05:52:47.264Z,8.16
2023-03-18T05:55:50.000Z,8.19
2023-03-18T05:58:53.040Z,8.25
2023-03-18T06:01:57.053Z,8.29
2023-03-18T06:05:00.156Z,8.39
2023-03-18T06:08:03.109Z,8.46
2023-03-18T06:11:06.576Z,8.45
2023-03-18T06:14:09.559Z,8.51
2023-03-18T06:17:14.031Z,8.50
2023-03-18T06:20:18.614Z,8.51
2023-03-18T06:23:21.668Z,8.59
2023-03-18T06:26:24.476Z,8.66
2023-03-18T06:29:27.677Z,8.68
2023-03-18T06:32:32.987Z,8.74
2023-03-18T06:35:36.307Z,8.74
2023-03-18T06:38:39.038Z,8.74
2023-03-18T06:41:41.580Z,8.81
2023-03-18T06:44:50.383Z,8.94
2023-03-18T06:47:54.323Z,9.01
2023-03-18T06:50:56.898Z,9.05
2023-03-18T06:53:59.945Z,9.06
2023-03-18T06:57:02.729Z,9.12
2023-03-18T07:00:06.252Z,9.20
2023-03-18T07:03:10.442Z,9.22
2023-03-18T07:06:13.087Z,9.24
2023-03-18T07:09:15.607Z,9.41
2023-03-18T07:12:19.165Z,9.62
2023-03-18T07:15:22.945Z,9.84
2023-03-18T07:18:28.073Z,10.10
2023-03-18T07:21:30.854Z,10.26
2023-03-18T07:24:33.475Z,10.36
2023-03-18T07:27:35.985Z,10.55
2023-03-18T07:30:40.204Z,10.89
2023-03-18T07:33:44.155Z,11.20
2023-03-18T07:36:46.907Z,11.39
2023-03-18T07:39:49.601Z,11.51
2023-03-18T07:42:53.503Z,11.67
2023-03-18T07:45:56.176Z,11.93
2023-03-18T07:49:00.070Z,12.12
2023-03-18T07:52:03.829Z,12.31
2023-03-18T07:55:09.072Z,12.57
2023-03-18T07:58:11.610Z,12.78
2023-03-18T08:01:16.616Z,12.97
2023-03-18T08:04:20.805Z,13.21
2023-03-18T08:07:24.430Z,13.40
2023-03-18T08:10:26.825Z,13.71
2023-03-18T08:13:29.481Z,13.83
2023-03-18T08:16:32.107Z,14.02
2023-03-18T08:19:36.261Z,14.11
2023-03-18T08:22:38.855Z,14.35
2023-03-18T08:25:41.819Z,14.48
2023-03-18T08:28:44.384Z,14.64
2023-03-18T08:31:47.056Z,14.84
2023-03-18T08:34:51.281Z,14.96
2023-03-18T08:37:54.322Z,15.11
2023-03-18T08:40:57.844Z,15.30
2023-03-18T08:44:00.485Z,15.45
2023-03-18T08:47:02.974Z,15.50
2023-03-18T08:50:08.944Z,15.55
2023-03-18T08:53:13.098Z,15.60
2023-03-18T08:56:15.993Z,15.75
2023-03-18T08:59:18.656Z,15.87
2023-03-18T09:02:21.624Z,15.92
2023-03-18T09:05:25.964Z,16.04
2023-03-18T09:08:29.250Z,16.05
2023-03-18T09:11:31.749Z,16.15
2023-03-18T09:14:34.448Z,16.21
2023-03-18T09:17:53.420Z,16.29
2023-03-18T09:21:00.760Z,16.23
2023-03-18T09:24:07.035Z,16.09
2023-03-18T09:27:10.338Z,16.18
2023-03-18T09:30:14.097Z,16.43
2023-03-18T09:33:17.023Z,16.74
2023-03-18T09:36:20.911Z,16.60
2023-03-18T09:39:23.725Z,16.84
2023-03-18T09:42:37.557Z,16.99
2023-03-18T09:45:47.000Z,17.15
2023-03-18T09:48:58.101Z,17.12
2023-03-18T09:52:10.887Z,17.26
2023-03-18T09:55:21.762Z,17.50
2023-03-18T09:58:26.792Z,17.65
2023-03-18T10:01:29.793Z,17.90
2023-03-18T10:04:38.333Z,18.05
2023-03-18T10:07:44.638Z,18.17
2023-03-18T10:10:48.730Z,18.42
2023-03-18T10:14:19.995Z,18.44
2023-03-18T10:17:25.934Z,18.22
2023-03-18T10:20:34.333Z,18.46
2023-03-18T10:23:46.240Z,18.17
2023-03-18T10:26:50.719Z,18.34
2023-03-18T10:29:59.266Z,18.66
2023-03-18T10:33:06.611Z,18.82
2023-03-18T10:36:13.922Z,18.81
2023-03-18T10:39:20.483Z,18.82
2023-03-18T10:42:26.405Z,19.27
2023-03-18T10:45:31.743Z,19.41
2023-03-18T10:48:36.459Z,19.69
2023-03-18T10:51:45.260Z,19.80
2023-03-18T10:54:52.482Z,19.78
2023-03-18T10:57:55.062Z,19.70
2023-03-18T11:00:57.937Z,19.55
2023-03-18T11:04:03.332Z,19.42
2023-03-18T11:07:09.153Z,19.27
2023-03-18T11:10:15.700Z,19.03
2023-03-18T11:13:19.137Z,19.01
2023-03-18T11:16:26.045Z,19.09
2023-03-18T11:19:32.159Z,18.95
2023-03-18T11:22:36.660Z,18.99
2023-03-18T11:25:40.792Z,19.35
2023-03-18T11:28:43.321Z,19.55
2023-03-18T11:32:03.676Z,19.46
2023-03-18T11:35:08.572Z,19.53
2023-03-18T11:38:16.665Z,19.66
2023-03-18T11:41:25.255Z,19.74
2023-03-18T11:44:32.674Z,19.88
2023-03-18T11:47:36.471Z,19.86
2023-03-18T11:50:44.894Z,19.25
2023-03-18T11:53:54.324Z,19.75
2023-03-18T11:57:01.694Z,20.04
2023-03-18T12:00:17.554Z,19.96
2023-03-18T12:03:53.853Z,20.02
2023-03-18T12:07:06.499Z,19.93
2023-03-18T12:10:18.050Z,19.49
2023-03-18T12:13:31.744Z,19.85
2023-03-18T12:16:46.539Z,20.29
2023-03-18T12:20:12.915Z,20.17
2023-03-18T12:23:29.683Z,20.57
2023-03-18T12:26:36.252Z,20.38
2023-03-18T12:30:11.685Z,20.45
2023-03-18T12:33:26.292Z,20.35
2023-03-18T12:36:44.983Z,21.02
2023-03-18T12:39:53.777Z,20.68
2023-03-18T12:43:05.492Z,20.65
2023-03-18T12:46:20.065Z,21.32
2023-03-18T12:49:26.583Z,20.88
2023-03-18T12:52:33.690Z,21.36
2023-03-18T12:55:38.642Z,21.58
2023-03-18T12:58:46.117Z,21.67
2023-03-18T13:01:58.367Z,22.10
2023-03-18T13:05:05.600Z,27.87
2023-03-18T13:08:35.562Z,35.40
2023-03-18T13:11:55.520Z,37.49
2023-03-18T13:14:59.938Z,38.61
2023-03-18T13:18:12.069Z,40.12
2023-03-18T13:21:16.444Z,35.30
2023-03-18T13:24:44.738Z,34.29
2023-03-18T13:27:54.917Z,31.47
2023-03-18T13:31:06.563Z,32.31
2023-03-18T13:34:31.580Z,34.60
2023-03-18T13:37:52.797Z,34.48
2023-03-18T13:41:05.688Z,31.14
2023-03-18T13:44:13.207Z,28.25
2023-03-18T13:47:18.435Z,27.86
2023-03-18T13:50:32.390Z,26.55
2023-03-18T13:53:39.693Z,26.65
2023-03-18T13:56:50.029Z,27.42
2023-03-18T13:59:52.593Z,27.04
2023-03-18T14:03:17.563Z,28.59
2023-03-18T14:06:24.676Z,30.56
2023-03-18T14:09:36.021Z,29.34
2023-03-18T14:12:40.355Z,27.76
2023-03-18T14:15:45.850Z,28.44
2023-03-18T14:18:57.173Z,28.59
2023-03-18T14:22:08.599Z,29.34
2023-03-18T14:25:21.430Z,27.81
2023-03-18T14:28:26.393Z,27.05
2023-03-18T14:31:35.091Z,26.15
2023-03-18T14:34:54.579Z,26.38
2023-03-18T14:38:01.999Z,25.84
2023-03-18T14:41:07.823Z,26.54
2023-03-18T14:44:21.469Z,27.10
2023-03-18T14:47:38.074Z,29.22
2023-03-18T14:50:43.302Z,30.06
2023-03-18T14:53:50.542Z,28.41
2023-03-18T14:56:54.673Z,27.26
2023-03-18T14:59:59.446Z,25.84
2023-03-18T15:03:04.620Z,26.40
2023-03-18T15:06:08.042Z,25.02
2023-03-18T15:09:23.484Z,25.32
2023-03-18T15:12:28.227Z,24.64
2023-03-18T15:15:31.378Z,24.38
2023-03-18T15:18:36.106Z,23.11
2023-03-18T15:21:39.190Z,23.23
2023-03-18T15:24:43.024Z,22.68
2023-03-18T15:27:45.729Z,22.67
2023-03-18T15:30:54.217Z,22.99
2023-03-18T15:34:05.012Z,22.57
2023-03-18T15:37:25.893Z,22.10
2023-03-18T15:40:32.864Z,22.35
2023-03-18T15:43:40.383Z,25.22
2023-03-18T15:46:47.236Z,30.61
2023-03-18T15:49:52.740Z,31.15
2023-03-18T15:53:09.444Z,26.89
2023-03-18T15:56:18.265Z,25.71
2023-03-18T15:59:28.707Z,28.36
2023-03-18T16:02:32.075Z,30.09
2023-03-18T16:05:35.023Z,27.85
2023-03-18T16:08:37.652Z,29.12
2023-03-18T16:11:41.526Z,25.99
2023-03-18T16:14:45.533Z,24.01
2023-03-18T16:17:48.663Z,22.74
2023-03-18T16:20:52.841Z,23.64
2023-03-18T16:23:55.888Z,24.25
2023-03-18T16:27:00.281Z,24.99
2023-03-18T16:30:02.940Z,23.62
2023-03-18T16:33:07.451Z,22.59
2023-03-18T16:36:22.969Z,21.60
2023-03-18T16:39:28.869Z,20.73
2023-03-18T16:42:32.702Z,20.04
2023-03-18T16:45:35.793Z,19.65
2023-03-18T16:48:38.798Z,19.62
2023-03-18T16:51:42.533Z,19.27
2023-03-18T16:54:45.302Z,19.10
2023-03-18T16:57:52.301Z,19.05
2023-03-18T17:00:55.143Z,19.03
2023-03-18T17:03:57.925Z,18.86
2023-03-18T17:07:03.479Z,18.64
2023-03-18T17:10:08.961Z,18.37
2023-03-18T17:13:20.485Z,18.11
2023-03-18T17:16:23.319Z,17.96
2023-03-18T17:19:26.514Z,17.80
2023-03-18T17:22:30.636Z,17.65
2023-03-18T17:25:33.749Z,17.41
2023-03-18T17:28:39.105Z,17.16
2023-03-18T17:31:41.754Z,17.04
2023-03-18T17:34:44.719Z,16.97
2023-03-18T17:37:47.485Z,16.79
2023-03-18T17:40:50.464Z,16.65
2023-03-18T17:43:54.307Z,16.48
2023-03-18T17:46:57.519Z,16.43
2023-03-18T17:50:00.606Z,16.40
2023-03-18T17:53:03.946Z,16.42
2023-03-18T17:56:08.327Z,16.33
2023-03-18T17:59:14.618Z,16.22
2023-03-18T18:02:18.698Z,16.17
2023-03-18T18:05:22.382Z,16.13
2023-03-18T18:08:26.072Z,16.01
2023-03-18T18:11:29.708Z,15.92
2023-03-18T18:14:34.223Z,15.79
2023-03-18T18:17:37.230Z,15.67
2023-03-18T18:20:39.788Z,15.62
2023-03-18T18:23:42.887Z,15.62
2023-03-18T18:26:45.621Z,15.56
2023-03-18T18:29:50.171Z,15.52
2023-03-18T18:32:53.826Z,15.27
2023-03-18T18:35:57.007Z,15.16
2023-03-18T18:39:00.635Z,14.98
2023-03-18T18:42:04.245Z,14.80
2023-03-18T18:45:10.508Z,14.80
2023-03-18T18:48:14.265Z,14.68
2023-03-18T18:51:18.751Z,14.51
2023-03-18T18:54:21.652Z,14.46
2023-03-18T18:57:26.729Z,14.38
2023-03-18T19:00:30.754Z,14.27
2023-03-18T19:03:33.626Z,14.28
2023-03-18T19:06:36.498Z,14.19
2023-03-18T19:09:39.217Z,14.13
2023-03-18T19:12:44.136Z,14.06
2023-03-18T19:15:49.513Z,14.00
2023-03-18T19:18:52.099Z,14.03
2023-03-18T19:21:54.809Z,13.89
2023-03-18T19:24:57.373Z,13.93
2023-03-18T19:28:00.298Z,13.92
2023-03-18T19:31:04.384Z,13.85
2023-03-18T19:34:10.758Z,13.80
2023-03-18T19:37:17.621Z,13.85
2023-03-18T19:40:23.733Z,13.77
2023-03-18T19:43:26.249Z,13.84
2023-03-18T19:46:35.987Z,13.93
2023-03-18T19:49:39.401Z,13.82
2023-03-18T19:52:42.228Z,13.84
2023-03-18T19:55:46.082Z,13.75
2023-03-18T19:58:49.467Z,13.74
2023-03-18T20:01:54.460Z,13.74
2023-03-18T20:04:58.800Z,13.70
2023-03-18T20:08:01.407Z,13.77
2023-03-18T20:11:04.218Z,13.64
2023-03-18T20:14:22.719Z,13.58
2023-03-18T20:17:32.314Z,13.47
2023-03-18T20:20:35.417Z,13.44
2023-03-18T20:23:38.135Z,13.34
2023-03-18T20:26:40.798Z,13.29
2023-03-18T20:29:43.713Z,13.28
2023-03-18T20:32:47.583Z,13.28
2023-03-18T20:35:52.002Z,13.27
2023-03-18T20:38:54.731Z,13.25
2023-03-18T20:41:57.519Z,13.22
2023-03-18T20:45:00.407Z,13.26
2023-03-18T20:48:04.828Z,13.22
2023-03-18T20:51:15.120Z,13.19
2023-03-18T20:54:19.591Z,13.25
2023-03-18T20:57:22.460Z,13.26
2023-03-18T21:00:26.939Z,13.28
2023-03-18T21:03:31.922Z,13.31
2023-03-18T21:06:34.564Z,13.27
2023-03-18T21:09:37.120Z,13.26
2023-03-18T21:12:39.618Z,13.19
2023-03-18T21:15:42.352Z,13.09
2023-03-18T21:18:46.451Z,13.05
2023-03-18T21:21:49.043Z,13.03
2023-03-18T21:24:52.294Z,12.97
2023-03-18T21:27:55.404Z,12.88
2023-03-18T21:30:58.772Z,12.83
2023-03-18T21:34:03.958Z,12.76
2023-03-18T21:37:11.326Z,12.63
2023-03-18T21:40:19.225Z,12.52
2023-03-18T21:43:28.178Z,12.50
2023-03-18T21:46:30.840Z,12.56
2023-03-18T21:49:34.723Z,12.63
2023-03-18T21:52:38.399Z,12.67
2023-03-18T21:55:41.026Z,12.60
2023-03-18T21:58:43.567Z,12.56
2023-03-18T22:01:46.240Z,12.50
2023-03-18T22:04:50.230Z,12.50
2023-03-18T22:07:53.889Z,12.51
2023-03-18T22:10:56.757Z,12.30
2023-03-18T22:13:59.291Z,12.10
2023-03-18T22:17:01.777Z,11.93
2023-03-18T22:20:07.256Z,11.82
2023-03-18T22:23:18.970Z,11.86
2023-03-18T22:26:22.388Z,11.87
2023-03-18T22:29:24.885Z,11.79
2023-03-18T22:32:45.689Z,11.72
2023-03-18T22:35:49.688Z,11.66
2023-03-18T22:38:52.361Z,11.68
2023-03-18T22:41:54.866Z,11.73
2023-03-18T22:44:57.722Z,11.71
2023-03-18T22:48:02.891Z,11.77
2023-03-18T22:51:07.478Z,11.81
2023-03-18T22:54:18.671Z,11.80
2023-03-18T22:57:22.902Z,11.76
2023-03-18T23:00:31.976Z,11.73
2023-03-18T23:03:36.368Z,11.62
2023-03-18T23:06:41.515Z,11.55
2023-03-18T23:09:56.186Z,11.53
2023-03-18T23:12:59.338Z,11.50
2023-03-18T23:16:02.297Z,11.45
2023-03-18T23:19:04.981Z,11.44
2023-03-18T23:22:10.843Z,11.46
2023-03-18T23:25:15.985Z,11.52
2023-03-18T23:28:19.237Z,11.56
2023-03-18T23:31:21.790Z,11.62
2023-03-18T23:34:24.364Z,11.63
2023-03-18T23:37:28.298Z,11.65
2023-03-18T23:40:30.951Z,11.64
2023-03-18T23:43:33.495Z,11.62
2023-03-18T23:46:36.416Z,11.61
2023-03-18T23:49:39.721Z,11.63
2023-03-18T23:52:43.680Z,11.61
2023-03-18T23:55:48.588Z,11.55
2023-03-18T23:58:51.586Z,11.59
